Velkommen til min vejrside, der er mangler og fejl som bliver opdateret. Kom snart tilbage og få vejret - Welcome to our website - Welkom op onze vernieuwde website
Bienvenue sur notre site web - Willkommen auf unserer Website - Check our progress frequently. Prüfen Sie unsere Fortschritte regelmäßig. Consultez notre progression fréquemment. Komt u straks nog eens terug


vejr3>nv more information Vejr3>NV


3 timers nedbørs radar more information rain snow radar


besøg nogle andre vejrsider:

Template dokumentation
og downloads

And another site


weather underground historie, tekst side

dagens sammenfatning af februar 8, 2018 enheder:  metrisk    engelsk   både
« forgående dag
næste dag »
dagens ugenligt månedlig årligt tilpasset
  høj: lav: gennemsnit:
temperatur: -17.8 °C -19.3 °C -18.9 °C
dugpunkt: -17.8 °C -20.1 °C -19.9 °C
fugtighed: Humidity % 86 % 86 %
vindhastighed: 0 km/h 12.9 km/h 24.8 km/h
vindstød: 0 km/h - -
vind:- - SSE
lufttryk: 0 hPa 34462.7 hPa -
nedbør: 0 mm    
Historical Graphs
 
 
tabeldata for februar 8, 2018
tid temperatur dugpunkt lufttryk vind vindhastighed vindstød fugtighed regn (timme)
-17.8 °C -17.8 °C 0 hPa Calm     Humidity % 0 mm
19:48 -18.7 °C -19.6 °C 34486.4 hPa SE 29.8 km/h 29.8 km/h 88 % 0 mm
19:53 -18.7 °C -19.6 °C 34486.4 hPa SE 32.8 km/h 32.8 km/h 88 % 0 mm
19:58 -18.7 °C -19.6 °C 34486.4 hPa SSE 29.8 km/h 29.8 km/h 88 % 0 mm
20:03 -18.7 °C -19.6 °C 34486.4 hPa SE 28.5 km/h 28.5 km/h 88 % 0 mm
20:08 -18.7 °C -19.7 °C 34486.4 hPa SE 26.9 km/h 26.9 km/h 87 % 0 mm
20:13 -18.7 °C -19.7 °C 34486.4 hPa SE 23.3 km/h 23.3 km/h 87 % 0 mm
20:18 -18.7 °C -19.8 °C 34486.4 hPa SE 23.8 km/h 23.8 km/h 87 % 0 mm
20:23 -18.7 °C -19.8 °C 34486.4 hPa SE 26.9 km/h 26.9 km/h 87 % 0 mm
20:28 -18.7 °C -19.8 °C 34486.4 hPa SSE 26.9 km/h 26.9 km/h 87 % 0 mm
20:33 -18.7 °C -19.8 °C 34486.4 hPa SE 29.8 km/h 29.8 km/h 87 % 0 mm
20:38 -18.7 °C -19.8 °C 34486.4 hPa SSE 29.8 km/h 29.8 km/h 87 % 0 mm
20:43 -18.7 °C -19.8 °C 34486.4 hPa SSE 23.8 km/h 23.8 km/h 87 % 0 mm
20:48 -18.8 °C -19.8 °C 34486.4 hPa SSE 29.8 km/h 29.8 km/h 87 % 0 mm
20:53 -18.8 °C -19.9 °C 34486.4 hPa SSE 32.8 km/h 32.8 km/h 86 % 0 mm
20:58 -18.8 °C -19.9 °C 34486.4 hPa SE 31.1 km/h 31.1 km/h 86 % 0 mm
21:03 -18.8 °C -19.9 °C 34486.4 hPa SE 28.5 km/h 28.5 km/h 86 % 0 mm
21:08 -18.8 °C -19.9 °C 34486.4 hPa SE 29.8 km/h 29.8 km/h 86 % 0 mm
21:13 -18.8 °C -20 °C 34486.4 hPa SE 23.8 km/h 23.8 km/h 86 % 0 mm
21:18 -18.9 °C -19.9 °C 34486.4 hPa SE 29.8 km/h 29.8 km/h 87 % 0 mm
21:23 -18.9 °C -19.9 °C 34476.3 hPa SE 29.8 km/h 29.8 km/h 87 % 0 mm
21:28 -18.9 °C -19.9 °C 34476.3 hPa SE 26.9 km/h 26.9 km/h 87 % 0 mm
21:33 -18.9 °C -19.9 °C 34476.3 hPa SSE 29.8 km/h 29.8 km/h 87 % 0 mm
21:38 -18.9 °C -20 °C 34476.3 hPa SE 32.8 km/h 32.8 km/h 87 % 0 mm
21:43 -18.9 °C -20 °C 34476.3 hPa ESE 26.9 km/h 26.9 km/h 87 % 0 mm
21:48 -19 °C -20.1 °C 34476.3 hPa SE 38.8 km/h 38.8 km/h 87 % 0 mm
21:53 -19 °C -19.9 °C 34476.3 hPa SE 32.8 km/h 32.8 km/h 88 % 0 mm
21:58 -19 °C -19.9 °C 34476.3 hPa SSE 29.8 km/h 29.8 km/h 88 % 0 mm
22:03 -19 °C -19.9 °C 34476.3 hPa SE 32.8 km/h 32.8 km/h 88 % 0 mm
22:08 -19 °C -19.9 °C 34476.3 hPa ESE 29.8 km/h 29.8 km/h 88 % 0 mm
22:13 -19 °C -19.9 °C 34476.3 hPa SE 32.8 km/h 32.8 km/h 88 % 0 mm
22:18 -19.1 °C -20 °C 34476.3 hPa SSE 23.8 km/h 23.8 km/h 88 % 0 mm
22:24 -19.1 °C -20 °C 34476.3 hPa SE 35.7 km/h 35.7 km/h 88 % 0 mm
22:29 -19.1 °C -20 °C 34476.3 hPa SE 12.9 km/h 18.2 km/h 88 % 0 mm
22:34 -19.1 °C -20 °C 34476.3 hPa SSE 18.2 km/h 36.2 km/h 88 % 0 mm
22:39 -19.1 °C -19.9 °C 34476.3 hPa SSE 18.2 km/h 31.1 km/h 89 % 0 mm
22:44 -19.1 °C -19.9 °C 34476.3 hPa SSE 18.2 km/h 25.9 km/h 89 % 0 mm
22:49 -19.1 °C -19.9 °C 34476.3 hPa South 26.9 km/h 26.9 km/h 89 % 0 mm
22:54 -19.1 °C -19.9 °C 34476.3 hPa South 12.9 km/h 12.9 km/h 89 % 0 mm
22:59 -19.1 °C -20 °C 34476.3 hPa SSE 12.9 km/h 23.3 km/h 89 % 0 mm
23:04 -19.2 °C -20.1 °C 34476.3 hPa SSE 15.6 km/h 31.1 km/h 89 % 0 mm
23:09 -19.2 °C -20.1 °C 34476.3 hPa SSE 18.2 km/h 18.2 km/h 89 % 0 mm
23:14 -19.2 °C -20.1 °C 34476.3 hPa SE 18.2 km/h 31.1 km/h 89 % 0 mm
23:19 -19.3 °C -20.1 °C 34462.7 hPa SE 26.9 km/h 26.9 km/h 89 % 0 mm
23:24 -19.2 °C -20.1 °C 34476.3 hPa SSE 15.6 km/h 23.3 km/h 90 % 0 mm
23:29 -19.2 °C -20 °C 34476.3 hPa SE 18.2 km/h 23.3 km/h 90 % 0 mm
23:34 -19.2 °C -19.9 °C 34462.7 hPa South 31.1 km/h 31.1 km/h 90 % 0 mm
23:39 -19.2 °C -19.9 °C 34476.3 hPa SSE 18.2 km/h 25.9 km/h 90 % 0 mm
23:44 -19.2 °C -19.9 °C 34462.7 hPa SSE 18.2 km/h 23.3 km/h 90 % 0 mm
23:49 -19.2 °C -19.9 °C 34462.7 hPa SSE 15.6 km/h 18.2 km/h 90 % 0 mm
23:54 -19.2 °C -19.9 °C 34462.7 hPa SSE 18.2 km/h 28.5 km/h 90 % 0 mm
23:59 -19.1 °C -19.9 °C 34462.7 hPa SSE 15.6 km/h 25.9 km/h 90 % 0 mm
Vejr3
tilladelse af Weather Underground - 2.75 mb

script udviklet af  Jim McMurry - jmcmurry@mwt.net tilpasset til dette template  Wim van der Kuil - Leuven-Template.eu

du finder også vores vejrinformationer på:

European Weather Network

Weather Underground

AWEKAS

WeatherlinkIP

Citizen Weather Observer Program (CWOP)

udstyr som vi anvender:

vejrstation
Davis VP2+

vejrprogram
Weather Display

vejrserver
Dell E6400

hjemmeside host
Webhosting.dk

Davis VP2+

Weather Display

Dell E6400

Webhosting.dk